Time;durP1;ratioP1;P1;durP2;ratioP2;P2;SDS_P1;SDS_P2;PMS_P1;PMS_P2;Temp;Humidity;BMP_temperature;BMP_pressure;BME280_temperature;BME280_humidity;BME280_pressure;Samples;Min_cycle;Max_cycle;Signal;HPM_P1;HPM_P2
2023/01/25 00:00:05;;;;;;;52.55;23.60;;;0.80;99.90;;;0.06;100.00;99453.03;4956810;28;20062;-70
2023/01/25 00:02:32;;;;;;;33.38;18.83;;;0.80;99.90;;;-0.04;100.00;99447.66;4940575;28;20057;-70
2023/01/25 00:04:59;;;;;;;33.03;18.30;;;0.80;99.90;;;0.03;100.00;99446.16;4960315;28;20046;-70
2023/01/25 00:07:26;;;;;;;28.95;17.20;;;0.80;99.90;;;-0.04;100.00;99447.66;4945166;28;20050;-70
2023/01/25 00:09:53;;;;;;;58.42;25.92;;;0.80;99.90;;;-0.08;100.00;99444.97;4959331;28;20122;-70
2023/01/25 00:12:20;;;;;;;56.80;24.92;;;0.70;99.90;;;-0.04;100.00;99446.81;4945678;28;20458;-70
2023/01/25 00:14:47;;;;;;;48.47;23.15;;;0.70;99.90;;;-0.02;100.00;99440.06;4960170;28;20050;-70
2023/01/25 00:17:14;;;;;;;46.38;21.73;;;0.70;99.90;;;0.00;100.00;99440.97;4945929;28;20057;-70
2023/01/25 00:19:41;;;;;;;40.47;20.52;;;0.80;99.90;;;-0.01;100.00;99439.22;4962826;28;20074;-70
2023/01/25 00:22:08;;;;;;;32.08;18.58;;;0.80;99.90;;;-0.05;100.00;99437.41;4959188;28;20063;-70
2023/01/25 00:24:35;;;;;;;54.35;24.85;;;0.80;99.90;;;-0.09;100.00;99435.56;4946381;28;20050;-70
2023/01/25 00:27:02;;;;;;;46.53;22.13;;;0.70;99.90;;;-0.14;100.00;99429.47;4942599;28;20042;-71
2023/01/25 00:29:29;;;;;;;72.35;28.88;;;0.70;99.90;;;-0.26;100.00;99433.38;4945334;28;20573;-70
2023/01/25 00:31:57;;;;;;;65.60;29.17;;;0.60;99.90;;;-0.15;100.00;99430.31;4961488;28;20042;-70
2023/01/25 00:34:24;;;;;;;48.88;23.45;;;0.60;99.90;;;-0.19;100.00;99424.22;4972602;28;20117;-70
2023/01/25 00:36:55;;;;;;;63.75;27.27;;;0.60;99.90;;;-0.22;100.00;99419.03;4958037;28;20047;-70
2023/01/25 00:39:26;;;;;;;44.25;22.45;;;0.60;99.90;;;-0.20;100.00;99430.16;4961993;28;20589;-70
2023/01/25 00:41:53;;;;;;;58.85;23.60;;;0.60;99.90;;;-0.18;100.00;99420.00;4964407;28;20057;-70
2023/01/25 00:44:21;;;;;;;49.05;23.65;;;0.60;99.90;;;-0.24;100.00;99416.44;4958757;28;20043;-70
2023/01/25 00:46:48;;;;;;;34.50;19.45;;;0.50;99.90;;;-0.15;100.00;99415.00;4962220;28;20047;-70
2023/01/25 00:49:25;;;;;;;37.60;20.42;;;0.60;99.90;;;-0.17;100.00;99414.94;4961474;28;20274;-70
2023/01/25 00:51:54;;;;;;;38.70;21.20;;;0.60;99.90;;;-0.21;100.00;99408.00;4960994;28;20043;-70
2023/01/25 00:54:21;;;;;;;44.28;20.80;;;0.60;99.90;;;-0.23;100.00;99407.09;4958619;28;20062;-70
2023/01/25 00:56:52;;;;;;;47.40;24.08;;;0.60;99.90;;;-0.30;100.00;99402.63;4961624;28;20134;-70
2023/01/25 00:59:19;;;;;;;34.85;18.55;;;0.50;99.90;;;-0.11;100.00;99397.25;4947403;28;20110;-70
2023/01/25 01:01:46;;;;;;;36.80;19.65;;;0.60;99.90;;;-0.20;100.00;99403.78;4958944;28;20047;-70
2023/01/25 01:04:14;;;;;;;41.60;20.67;;;0.60;99.90;;;-0.36;100.00;99394.81;4960643;28;20058;-70
2023/01/25 01:06:42;;;;;;;31.10;16.92;;;0.50;99.90;;;-0.28;100.00;99394.19;4941255;28;20434;-70
2023/01/25 01:09:17;;;;;;;36.90;19.98;;;0.60;99.90;;;-0.25;100.00;99389.19;4961044;28;20059;-70
2023/01/25 01:11:44;;;;;;;38.00;20.23;;;0.50;99.90;;;-0.18;100.00;99389.38;4960884;28;20050;-70
2023/01/25 01:14:12;;;;;;;42.35;20.50;;;0.60;99.90;;;-0.18;100.00;99387.69;4957235;28;20426;-70
2023/01/25 01:16:40;;;;;;;26.55;15.73;;;0.60;99.90;;;-0.14;100.00;99386.94;4958457;28;20055;-70
2023/01/25 01:19:07;;;;;;;25.67;15.38;;;0.70;99.90;;;-0.14;100.00;99384.38;4943924;28;20061;-70
2023/01/25 01:21:34;;;;;;;27.92;15.73;;;0.70;99.90;;;-0.08;100.00;99387.13;4949612;28;20178;-70
2023/01/25 01:24:01;;;;;;;28.85;15.38;;;0.70;99.90;;;-0.13;100.00;99380.19;4977042;28;20046;-70
2023/01/25 01:26:29;;;;;;;29.23;15.82;;;0.70;99.90;;;-0.19;100.00;99373.19;4962119;28;20422;-70
2023/01/25 01:28:58;;;;;;;38.92;19.55;;;0.70;99.90;;;-0.14;100.00;99386.94;4979640;28;20047;-70
2023/01/25 01:31:25;;;;;;;26.00;15.25;;;0.70;99.90;;;-0.12;100.00;99376.78;4966180;28;20051;-70
2023/01/25 01:33:55;;;;;;;43.03;19.10;;;0.70;99.90;;;-0.18;100.00;99386.81;4962633;28;20059;-70
2023/01/25 01:36:25;;;;;;;27.95;17.10;;;0.60;99.90;;;-0.16;100.00;99386.06;4959426;28;20063;-70
2023/01/25 01:38:52;;;;;;;43.20;20.45;;;0.60;99.90;;;-0.25;100.00;99376.44;4957778;28;20055;-70
2023/01/25 01:41:20;;;;;;;72.53;24.95;;;0.60;99.90;;;-0.30;100.00;99382.22;4944794;28;20055;-70
2023/01/25 01:43:47;;;;;;;64.47;25.10;;;0.50;99.90;;;-0.30;100.00;99383.06;4943762;28;20145;-70
2023/01/25 01:46:38;;;;;;;63.92;26.42;;;0.60;99.90;;;-0.28;100.00;99383.13;4977894;28;20149;-70
2023/01/25 01:49:34;;;;;;;54.40;25.70;;;0.50;99.90;;;-0.23;100.00;99381.56;4951671;28;20049;-70
2023/01/25 01:52:11;;;;;;;37.15;19.52;;;0.50;99.90;;;-0.28;100.00;99378.88;4948612;28;20043;-70
2023/01/25 01:55:03;;;;;;;43.20;21.45;;;0.60;99.90;;;-0.19;100.00;99385.94;4965949;28;20129;-70
2023/01/25 01:57:44;;;;;;;71.72;26.35;;;0.60;99.90;;;-0.32;100.00;99387.28;4953787;28;20051;-70
2023/01/25 02:00:18;;;;;;;35.53;20.63;;;0.50;99.90;;;-0.28;100.00;99385.69;4949542;28;20051;-70
2023/01/25 02:02:48;;;;;;;49.33;22.30;;;0.60;99.90;;;-0.23;100.00;99374.81;4966329;28;20061;-70
2023/01/25 02:05:55;;;;;;;57.47;24.17;;;0.60;99.90;;;-0.18;100.00;99372.38;4944024;28;20110;-70
2023/01/25 02:08:24;;;;;;;34.83;18.90;;;0.60;99.90;;;-0.06;100.00;99371.88;4963023;28;20066;-70
2023/01/25 02:10:51;;;;;;;31.02;18.88;;;0.60;99.90;;;0.02;100.00;99369.53;4949953;28;20394;-70
2023/01/25 02:13:19;;;;;;;38.72;19.80;;;0.70;99.90;;;-0.02;100.00;99361.78;4945104;28;20055;-70
2023/01/25 02:15:50;;;;;;;51.72;24.67;;;0.70;99.90;;;-0.06;100.00;99357.41;4968182;28;20055;-70
2023/01/25 02:18:18;;;;;;;36.13;21.08;;;0.70;99.90;;;-0.08;100.00;99358.19;4977451;28;20077;-70
2023/01/25 02:20:49;;;;;;;71.70;28.67;;;0.70;99.90;;;-0.23;100.00;99354.38;4945539;28;20051;-70
2023/01/25 02:23:39;;;;;;;75.65;27.20;;;0.60;99.90;;;-0.15;100.00;99353.75;4934655;28;20166;-70
2023/01/25 02:26:07;;;;;;;37.17;20.80;;;0.60;99.90;;;-0.12;100.00;99353.81;4962294;28;20116;-70
2023/01/25 02:28:51;;;;;;;66.70;27.15;;;0.60;99.90;;;-0.11;100.00;99345.34;4960612;28;20051;-70
2023/01/25 02:31:18;;;;;;;75.35;28.73;;;0.60;99.90;;;-0.05;100.00;99348.91;4960315;28;20572;-70
2023/01/25 02:33:45;;;;;;;54.53;24.63;;;0.70;99.90;;;-0.10;100.00;99341.97;4947075;28;20577;-70
2023/01/25 02:36:19;;;;;;;70.47;23.08;;;0.60;99.90;;;-0.09;100.00;99341.13;4945925;28;20157;-70
2023/01/25 02:38:53;;;;;;;38.70;20.35;;;0.70;99.90;;;-0.03;100.00;99343.88;4945882;28;20058;-70
2023/01/25 02:41:33;;;;;;;36.22;19.70;;;0.70;99.90;;;0.09;100.00;99348.44;4945005;28;20047;-70
2023/01/25 02:44:04;;;;;;;47.13;22.08;;;0.80;99.90;;;0.02;100.00;99351.66;4933557;28;20051;-70
2023/01/25 02:46:37;;;;;;;34.38;19.63;;;0.80;99.90;;;0.10;100.00;99348.50;4961484;28;20057;-70
2023/01/25 02:49:07;;;;;;;42.67;20.08;;;0.80;99.90;;;0.04;100.00;99347.47;4963193;28;20043;-70
2023/01/25 02:51:40;;;;;;;68.05;28.33;;;0.80;99.90;;;-0.06;100.00;99348.91;4961598;28;20047;-70
2023/01/25 02:54:10;;;;;;;59.17;27.42;;;0.70;99.90;;;-0.04;100.00;99354.91;4960681;28;20062;-70
2023/01/25 02:56:41;;;;;;;36.22;20.67;;;0.70;99.90;;;0.05;100.00;99354.31;4962145;28;20047;-70
2023/01/25 02:59:12;;;;;;;48.05;21.50;;;0.80;99.90;;;-0.02;100.00;99353.28;4960292;28;20065;-70
2023/01/25 03:01:42;;;;;;;35.17;20.48;;;0.80;99.90;;;0.13;100.00;99351.13;4963287;28;20105;-70
2023/01/25 03:04:09;;;;;;;62.65;25.13;;;0.80;99.90;;;-0.10;100.00;99350.47;4975357;28;20077;-70
2023/01/25 03:06:37;;;;;;;57.88;24.83;;;0.80;99.90;;;-0.15;100.00;99336.72;4961618;28;20054;-70
2023/01/25 03:09:07;;;;;;;55.65;25.13;;;0.70;99.90;;;-0.19;100.00;99331.50;4944452;28;20043;-70
2023/01/25 03:11:34;;;;;;;66.63;26.08;;;0.70;99.90;;;-0.10;100.00;99336.88;4975788;28;20055;-70
2023/01/25 03:14:02;;;;;;;45.60;22.83;;;0.70;99.90;;;0.04;100.00;99332.13;4962681;28;20055;-70
2023/01/25 03:16:30;;;;;;;133.13;34.72;;;0.70;99.90;;;-0.24;100.00;99336.47;4977864;28;20050;-70
2023/01/25 03:18:57;;;;;;;39.65;21.05;;;0.60;99.90;;;-0.17;100.00;99333.28;4944945;28;20137;-70
2023/01/25 03:21:25;;;;;;;39.75;20.25;;;0.70;99.90;;;-0.15;100.00;99333.31;4946812;28;20058;-70
2023/01/25 03:23:59;;;;;;;115.68;32.30;;;0.70;99.90;;;-0.20;100.00;99330.63;4973188;28;20047;-70
2023/01/25 03:26:27;;;;;;;105.43;31.75;;;0.60;99.90;;;-0.20;100.00;99327.22;4964721;28;20047;-70
2023/01/25 03:28:56;;;;;;;98.53;30.75;;;0.60;99.90;;;-0.20;100.00;99330.63;4945012;28;20039;-70
2023/01/25 03:31:23;;;;;;;67.30;26.88;;;0.60;99.90;;;-0.02;100.00;99336.25;4943918;28;20053;-70
2023/01/25 03:33:51;;;;;;;85.85;27.17;;;0.70;99.90;;;-0.09;100.00;99334.38;4975091;28;20614;-70
2023/01/25 03:36:18;;;;;;;170.30;36.58;;;0.70;99.90;;;-0.25;100.00;99322.84;4960688;28;20054;-70
2023/01/25 03:38:45;;;;;;;85.68;27.08;;;0.60;99.90;;;-0.23;100.00;99326.31;4962705;28;20053;-70
2023/01/25 03:41:13;;;;;;;88.47;29.50;;;0.60;99.90;;;-0.16;100.00;99323.91;4948872;28;20078;-70
2023/01/25 03:43:40;;;;;;;126.43;31.75;;;0.60;99.90;;;-0.18;100.00;99328.09;4959612;28;20075;-70
2023/01/25 03:46:11;;;;;;;77.13;24.30;;;0.60;99.90;;;-0.19;100.00;99327.25;4945567;28;20601;-70
2023/01/25 03:48:38;;;;;;;145.32;34.20;;;0.60;99.90;;;-0.19;100.00;99317.03;4950118;28;20062;-70
2023/01/25 03:51:05;;;;;;;83.13;27.83;;;0.60;99.90;;;-0.05;100.00;99325.09;4960101;28;20058;-70
2023/01/25 03:53:32;;;;;;;39.42;19.20;;;0.70;99.90;;;0.07;100.00;99319.44;4946260;28;20134;-70
2023/01/25 03:56:03;;;;;;;108.40;28.73;;;0.80;99.90;;;0.07;100.00;99327.09;4964259;28;20058;-70
2023/01/25 03:58:31;;;;;;;46.17;20.60;;;0.80;99.90;;;0.14;100.00;99322.22;4947112;28;20059;-70
2023/01/25 04:00:59;;;;;;;71.10;26.10;;;0.80;99.90;;;0.11;100.00;99319.56;4958575;28;20054;-70
2023/01/25 04:03:28;;;;;;;112.28;30.98;;;0.80;99.90;;;-0.07;100.00;99316.50;4959476;28;20055;-70
2023/01/25 04:05:57;;;;;;;114.25;33.13;;;0.80;99.90;;;-0.07;100.00;99319.06;4945094;28;20411;-70
2023/01/25 04:08:25;;;;;;;121.32;32.63;;;0.70;99.90;;;-0.18;100.00;99315.34;4944672;28;20061;-70
2023/01/25 04:10:55;;;;;;;111.65;31.55;;;0.70;99.90;;;-0.23;100.00;99312.66;4947105;28;20157;-70
2023/01/25 04:13:23;;;;;;;41.72;22.75;;;0.60;99.90;;;-0.14;100.00;99314.63;4940762;28;20160;-70
2023/01/25 04:15:51;;;;;;;47.20;22.67;;;0.60;99.90;;;-0.08;100.00;99309.69;4949985;28;20042;-70
2023/01/25 04:18:18;;;;;;;149.48;32.75;;;0.60;99.90;;;-0.26;100.00;99310.91;4946203;28;20180;-70
2023/01/25 04:20:45;;;;;;;77.38;27.42;;;0.60;99.90;;;-0.19;100.00;99313.63;4941465;28;20111;-70
2023/01/25 04:23:12;;;;;;;62.10;24.25;;;0.60;99.90;;;-0.24;100.00;99314.38;4962585;28;20051;-70
2023/01/25 04:25:39;;;;;;;63.00;24.05;;;0.60;99.90;;;-0.05;100.00;99313.19;4961363;28;20039;-70
2023/01/25 04:28:06;;;;;;;80.75;27.50;;;0.70;99.90;;;-0.08;100.00;99308.00;4958588;28;20646;-70
2023/01/25 04:30:34;;;;;;;89.78;30.20;;;0.70;99.90;;;-0.09;100.00;99305.41;4960961;28;20051;-70
2023/01/25 04:33:04;;;;;;;70.35;23.73;;;0.60;99.90;;;-0.16;100.00;99311.16;4961034;28;20055;-70
2023/01/25 04:35:32;;;;;;;86.20;28.02;;;0.60;99.90;;;-0.15;100.00;99300.16;4929614;28;20050;-70
2023/01/25 04:37:59;;;;;;;50.92;21.15;;;0.60;99.90;;;-0.25;100.00;99304.09;4961767;28;20043;-70
2023/01/25 04:40:26;;;;;;;111.63;28.13;;;0.60;99.90;;;-0.22;100.00;99297.41;4947999;28;20059;-70
2023/01/25 04:42:54;;;;;;;135.32;32.42;;;0.60;99.90;;;-0.26;100.00;99304.94;4948694;28;20146;-70
2023/01/25 04:45:22;;;;;;;95.72;30.63;;;0.50;99.90;;;-0.14;100.00;99291.66;4960255;28;20061;-70
2023/01/25 04:47:54;;;;;;;107.80;29.17;;;0.60;99.90;;;-0.43;100.00;99290.03;4945682;28;20055;-70
2023/01/25 04:50:21;;;;;;;64.18;23.50;;;0.40;99.90;;;-0.42;100.00;99293.44;4958803;28;20609;-70
2023/01/25 04:52:48;;;;;;;113.72;31.17;;;0.50;99.90;;;-0.29;100.00;99300.63;4962369;28;20047;-70
2023/01/25 04:55:16;;;;;;;101.53;28.35;;;0.50;99.90;;;-0.23;100.00;99294.81;4963113;28;20058;-70
2023/01/25 04:57:43;;;;;;;103.80;29.73;;;0.40;99.90;;;-0.16;100.00;99296.72;4947485;28;20055;-70
2023/01/25 05:00:11;;;;;;;84.55;25.67;;;0.50;99.90;;;-0.16;100.00;99298.41;4961772;28;20133;-71
2023/01/25 05:02:38;;;;;;;77.35;27.25;;;0.60;99.90;;;-0.20;100.00;99288.94;4943576;28;20051;-70
2023/01/25 05:05:06;;;;;;;68.60;25.05;;;0.50;99.90;;;-0.21;100.00;99290.63;4931011;28;20078;-70
2023/01/25 05:07:33;;;;;;;72.70;26.55;;;0.50;99.90;;;-0.31;100.00;99288.63;4964695;28;20047;-70
2023/01/25 05:10:01;;;;;;;76.97;25.40;;;0.50;99.90;;;-0.25;100.00;99299.00;4961450;28;20046;-70
2023/01/25 05:12:28;;;;;;;41.25;20.92;;;0.50;99.90;;;-0.24;100.00;99293.09;4946575;28;20443;-70
2023/01/25 05:14:55;;;;;;;75.72;26.67;;;0.60;99.90;;;-0.23;100.00;99289.69;4952026;28;20143;-70
2023/01/25 05:17:23;;;;;;;66.38;25.38;;;0.50;99.90;;;-0.22;100.00;99281.25;4963413;28;20143;-69
2023/01/25 05:19:49;;;;;;;86.32;28.50;;;0.50;99.90;;;-0.35;100.00;99292.78;4948736;28;20062;-70
2023/01/25 05:22:19;;;;;;;49.38;21.58;;;0.50;99.90;;;-0.26;100.00;99276.88;4935577;28;20137;-70
2023/01/25 05:24:47;;;;;;;54.97;23.77;;;0.50;99.90;;;-0.33;100.00;99280.94;4935526;28;20052;-70
2023/01/25 05:27:18;;;;;;;46.47;21.38;;;0.50;99.90;;;-0.19;100.00;99275.34;4935282;28;20066;-70
2023/01/25 05:29:45;;;;;;;84.53;28.05;;;0.50;99.90;;;-0.34;100.00;99276.66;4945988;28;20047;-70
2023/01/25 05:32:21;;;;;;;58.20;24.02;;;0.50;99.90;;;-0.20;100.00;99277.03;4977922;28;20118;-70
2023/01/25 05:34:48;;;;;;;65.70;24.05;;;0.50;99.90;;;-0.28;100.00;99270.84;4965517;28;20062;-70
2023/01/25 05:37:18;;;;;;;94.20;28.58;;;0.50;99.90;;;-0.26;100.00;99275.16;4932914;28;20385;-70
2023/01/25 05:39:45;;;;;;;80.32;27.10;;;0.50;99.90;;;-0.30;100.00;99270.81;4975463;28;20501;-70
2023/01/25 05:42:15;;;;;;;76.32;27.17;;;0.50;99.90;;;-0.19;100.00;99267.69;4948990;28;20055;-70
2023/01/25 05:44:43;;;;;;;111.32;26.02;;;0.50;99.90;;;-0.23;100.00;99270.19;4962831;28;20061;-70
2023/01/25 05:47:15;;;;;;;123.25;29.52;;;0.60;99.90;;;-0.34;100.00;99258.81;4961772;28;20047;-70
2023/01/25 05:49:43;;;;;;;140.98;30.52;;;0.50;99.90;;;-0.34;100.00;99258.81;4950510;28;20077;-70
2023/01/25 05:52:15;;;;;;;88.97;27.25;;;0.50;99.90;;;-0.31;100.00;99256.31;4948869;28;20534;-70
2023/01/25 05:54:42;;;;;;;51.05;21.67;;;0.50;99.90;;;-0.12;100.00;99264.47;4949125;28;20047;-70
2023/01/25 05:57:10;;;;;;;108.22;27.75;;;0.60;99.90;;;-0.27;100.00;99264.94;4946197;28;20051;-70
2023/01/25 05:59:37;;;;;;;115.75;28.92;;;0.50;99.90;;;-0.35;100.00;99259.59;4963247;28;20054;-70
2023/01/25 06:02:04;;;;;;;107.07;25.70;;;0.40;99.90;;;-0.28;100.00;99263.19;4958644;28;20126;-70
2023/01/25 06:04:31;;;;;;;93.18;28.25;;;0.50;99.90;;;-0.30;100.00;99258.03;4961335;28;20054;-70
2023/01/25 06:06:58;;;;;;;81.10;24.70;;;0.40;99.90;;;-0.25;100.00;99253.06;4946026;28;20065;-70
2023/01/25 06:09:25;;;;;;;102.25;25.60;;;0.50;99.90;;;-0.16;100.00;99263.56;4945280;28;20051;-70
2023/01/25 06:11:53;;;;;;;46.17;18.92;;;0.60;99.90;;;-0.17;100.00;99248.19;4962054;28;20131;-70
2023/01/25 06:14:22;;;;;;;55.40;19.25;;;0.60;99.90;;;-0.10;100.00;99243.28;4961218;28;20086;-70
2023/01/25 06:16:49;;;;;;;152.93;30.23;;;0.70;99.90;;;-0.29;100.00;99238.53;4961657;28;20154;-70
2023/01/25 06:19:16;;;;;;;77.43;22.45;;;0.60;99.90;;;-0.26;100.00;99230.94;4963703;28;20070;-70
2023/01/25 06:21:43;;;;;;;79.32;21.80;;;0.60;99.90;;;-0.24;100.00;99236.94;4965312;28;20058;-70
2023/01/25 06:24:10;;;;;;;70.72;24.35;;;0.60;99.90;;;-0.19;100.00;99231.97;4961466;28;20127;-70
2023/01/25 06:26:37;;;;;;;122.80;27.45;;;0.60;99.90;;;-0.16;100.00;99226.94;4933806;28;20051;-70
2023/01/25 06:29:05;;;;;;;54.50;21.95;;;0.60;99.90;;;-0.16;100.00;99235.47;4951805;28;20058;-70
2023/01/25 06:31:33;;;;;;;70.68;23.58;;;0.60;99.90;;;-0.15;100.00;99229.53;4961767;28;20050;-70
2023/01/25 06:34:03;;;;;;;52.17;19.60;;;0.60;99.90;;;-0.19;100.00;99235.38;4960553;28;20043;-70
2023/01/25 06:36:31;;;;;;;110.72;25.40;;;0.60;99.90;;;-0.19;100.00;99232.81;4963860;28;20090;-70
2023/01/25 06:38:58;;;;;;;101.70;27.65;;;0.60;99.90;;;-0.23;100.00;99231.91;4932795;28;20055;-70
2023/01/25 06:41:25;;;;;;;85.25;23.48;;;0.50;99.90;;;-0.14;100.00;99240.59;4943863;28;20078;-69
2023/01/25 06:43:52;;;;;;;57.35;19.20;;;0.60;99.90;;;-0.18;100.00;99236.22;4961021;28;20066;-70
2023/01/25 06:46:23;;;;;;;49.92;18.88;;;0.60;99.90;;;-0.27;100.00;99234.31;4961359;28;20552;-70
2023/01/25 06:48:50;;;;;;;56.30;21.83;;;0.50;99.90;;;-0.22;100.00;99238.72;4945429;28;20466;-69
2023/01/25 06:51:17;;;;;;;29.25;16.65;;;0.60;99.90;;;-0.04;100.00;99232.38;4947693;28;20043;-70
2023/01/25 06:53:46;;;;;;;53.80;20.30;;;0.60;99.90;;;-0.19;100.00;99237.94;4973831;28;20142;-69
2023/01/25 06:56:20;;;;;;;62.80;22.33;;;0.60;99.90;;;-0.22;100.00;99238.72;4947027;28;20047;-70
2023/01/25 06:58:49;;;;;;;30.58;16.27;;;0.60;99.90;;;-0.06;100.00;99223.81;4960004;28;20047;-70
2023/01/25 07:01:25;;;;;;;31.40;15.85;;;0.60;99.90;;;-0.10;100.00;99232.22;4959765;28;20142;-70
2023/01/25 07:03:58;;;;;;;46.10;18.73;;;0.70;99.90;;;-0.19;100.00;99232.81;4958816;28;20047;-69
2023/01/25 07:06:32;;;;;;;37.33;16.63;;;0.60;99.90;;;-0.21;100.00;99229.38;4946116;28;20054;-70
2023/01/25 07:09:08;;;;;;;42.78;18.38;;;0.60;99.90;;;-0.30;100.00;99231.66;4958655;28;20168;-69
2023/01/25 07:11:35;;;;;;;28.83;15.32;;;0.50;99.90;;;-0.15;100.00;99228.69;4958483;28;20051;-70
2023/01/25 07:14:04;;;;;;;37.70;16.52;;;0.60;99.90;;;-0.26;100.00;99228.38;4959057;28;20498;-69
2023/01/25 07:16:35;;;;;;;32.42;14.77;;;0.60;99.90;;;-0.20;100.00;99220.03;4941421;28;20138;-70
2023/01/25 07:19:04;;;;;;;36.30;15.75;;;0.60;99.90;;;-0.19;100.00;99227.72;4950456;28;20051;-69
2023/01/25 07:21:33;;;;;;;34.13;14.98;;;0.50;99.90;;;-0.12;100.00;99228.75;4943318;28;20070;-69
2023/01/25 07:24:03;;;;;;;34.72;16.45;;;0.60;99.90;;;-0.20;100.00;99233.66;4957463;28;20061;-70
2023/01/25 07:26:31;;;;;;;36.38;16.63;;;0.60;99.90;;;-0.10;100.00;99232.22;4976762;28;20047;-70
2023/01/25 07:28:59;;;;;;;29.45;14.63;;;0.60;99.90;;;-0.18;100.00;99234.56;4949472;28;20418;-70
2023/01/25 07:31:26;;;;;;;29.00;13.13;;;0.60;99.90;;;-0.16;100.00;99237.16;4934320;28;20054;-70
2023/01/25 07:33:56;;;;;;;29.98;14.45;;;0.60;99.90;;;-0.16;100.00;99230.38;4943312;28;20040;-70
2023/01/25 07:36:25;;;;;;;26.30;13.18;;;0.60;99.90;;;-0.29;100.00;99226.63;4954411;28;20964;-70
2023/01/25 07:38:54;;;;;;;19.73;10.95;;;0.50;99.90;;;-0.30;100.00;99226.56;4939214;28;20054;-70
2023/01/25 07:41:23;;;;;;;18.92;9.98;;;0.50;99.90;;;-0.22;100.00;99227.66;4947856;28;20134;-70
2023/01/25 07:43:51;;;;;;;27.20;12.10;;;0.50;99.90;;;-0.29;100.00;99228.31;4927046;28;20051;-70
2023/01/25 07:46:18;;;;;;;17.77;9.43;;;0.50;99.90;;;-0.27;100.00;99229.22;4945456;28;20061;-74
2023/01/25 07:48:48;;;;;;;18.70;9.25;;;0.50;99.90;;;-0.25;100.00;99230.09;4941282;28;20047;-70
2023/01/25 07:51:21;;;;;;;21.38;11.40;;;0.50;99.90;;;-0.39;100.00;99221.22;4931720;28;20050;-70
2023/01/25 07:53:54;;;;;;;18.40;10.52;;;0.40;99.90;;;-0.37;100.00;99220.44;4957366;28;20054;-71
2023/01/25 07:56:28;;;;;;;18.20;9.07;;;0.40;99.90;;;-0.23;100.00;99223.34;4958202;28;20078;-70
2023/01/25 07:58:57;;;;;;;17.98;9.45;;;0.50;99.90;;;-0.28;100.00;99223.22;4944783;28;20051;-70
2023/01/25 08:01:27;;;;;;;19.58;9.57;;;0.60;99.90;;;-0.14;100.00;99223.59;4923015;28;20138;-71
2023/01/25 08:03:56;;;;;;;15.90;8.68;;;0.60;99.90;;;-0.13;100.00;99227.91;4961896;28;20047;-71
2023/01/25 08:06:29;;;;;;;14.80;7.95;;;0.60;99.90;;;-0.01;100.00;99228.19;4943583;28;20123;-71
2023/01/25 08:08:58;;;;;;;15.93;8.68;;;0.70;99.90;;;0.04;100.00;99224.91;4949592;28;20861;-71
2023/01/25 08:11:28;;;;;;;18.48;10.30;;;0.80;99.90;;;-0.05;100.00;99218.72;4946927;28;20138;-71
2023/01/25 08:13:56;;;;;;;18.50;10.18;;;0.70;99.90;;;-0.16;100.00;99222.72;4958435;28;20054;-70
2023/01/25 08:16:25;;;;;;;19.13;9.75;;;0.60;99.90;;;-0.17;100.00;99218.41;4945211;28;20062;-71
2023/01/25 08:18:56;;;;;;;17.23;10.02;;;0.70;99.90;;;-0.24;100.00;99211.44;4960872;28;20141;-71
2023/01/25 08:21:29;;;;;;;20.23;10.98;;;0.60;99.90;;;-0.28;100.00;99210.47;4945447;28;20519;-70
2023/01/25 08:23:58;;;;;;;27.77;13.18;;;0.60;99.90;;;-0.39;100.00;99206.75;4944793;28;20046;-71
2023/01/25 08:26:25;;;;;;;22.48;11.85;;;0.50;99.90;;;-0.25;100.00;99202.91;4961437;28;20050;-70
2023/01/25 08:28:58;;;;;;;23.65;11.82;;;0.60;99.90;;;-0.31;100.00;99207.84;4974929;28;20047;-70
2023/01/25 08:31:29;;;;;;;19.58;10.57;;;0.50;99.90;;;-0.19;100.00;99206.44;4944495;28;20055;-70
2023/01/25 08:33:58;;;;;;;20.17;11.23;;;0.60;99.90;;;-0.31;100.00;99196.78;4945656;28;20086;-70
2023/01/25 08:36:26;;;;;;;23.75;12.82;;;0.50;99.90;;;-0.31;100.00;99201.88;4945742;28;20047;-70
2023/01/25 08:39:06;;;;;;;24.45;11.93;;;0.50;99.90;;;-0.12;100.00;99200.69;4950013;28;20046;-70
2023/01/25 08:41:34;;;;;;;21.25;11.25;;;0.70;99.90;;;-0.20;100.00;99199.63;4944010;28;20083;-70
2023/01/25 08:44:02;;;;;;;16.27;9.57;;;0.60;99.90;;;0.01;100.00;99207.84;4958402;28;20051;-70
2023/01/25 08:46:32;;;;;;;17.50;9.80;;;0.80;99.90;;;-0.09;100.00;99196.53;4958531;28;20089;-71
2023/01/25 08:49:01;;;;;;;20.17;9.95;;;0.70;99.90;;;-0.12;100.00;99200.69;4973546;28;20059;-71
2023/01/25 08:51:30;;;;;;;16.35;9.48;;;0.70;99.90;;;-0.19;100.00;99209.00;4941246;28;20059;-71
2023/01/25 08:54:05;;;;;;;20.42;11.40;;;0.70;99.90;;;-0.09;100.00;99204.19;4974987;28;20047;-70
2023/01/25 08:56:36;;;;;;;14.55;8.38;;;0.70;99.90;;;-0.27;100.00;99202.00;4958914;28;20090;-70
2023/01/25 08:59:03;;;;;;;16.02;9.00;;;0.70;99.90;;;-0.22;100.00;99194.47;4946702;28;20366;-70
2023/01/25 09:01:30;;;;;;;16.08;8.98;;;0.60;99.90;;;-0.23;100.00;99195.28;4940721;28;20051;-71
2023/01/25 09:03:57;;;;;;;20.38;11.10;;;0.60;99.90;;;-0.20;100.00;99204.72;4932782;28;20054;-70
2023/01/25 09:06:25;;;;;;;18.67;10.05;;;0.70;99.90;;;-0.11;100.00;99200.72;4959643;28;20141;-70
2023/01/25 09:08:52;;;;;;;19.15;9.77;;;0.70;99.90;;;-0.03;100.00;99196.66;4957341;28;20399;-70
2023/01/25 09:11:21;;;;;;;24.23;11.10;;;0.80;99.90;;;-0.26;100.00;99193.50;4955319;28;20055;-70
2023/01/25 09:13:49;;;;;;;18.52;10.77;;;0.60;99.90;;;-0.16;100.00;99192.09;4957390;28;20086;-70
2023/01/25 09:16:26;;;;;;;20.40;11.27;;;0.70;99.90;;;-0.27;100.00;99191.81;4954783;28;20059;-70
2023/01/25 09:18:59;;;;;;;27.27;13.88;;;0.60;99.90;;;-0.32;100.00;99187.38;4947365;28;20536;-70
2023/01/25 09:21:27;;;;;;;22.45;11.95;;;0.60;99.90;;;-0.26;100.00;99190.09;4942017;28;20101;-70
2023/01/25 09:23:56;;;;;;;17.73;10.45;;;0.60;99.90;;;-0.27;100.00;99183.28;4971587;28;20533;-70
2023/01/25 09:26:36;;;;;;;20.27;10.43;;;0.60;99.90;;;-0.14;100.00;99195.53;4930546;28;20054;-70
2023/01/25 09:29:06;;;;;;;21.50;12.18;;;0.70;99.90;;;-0.26;100.00;99193.50;4954058;28;20603;-71
2023/01/25 09:31:34;;;;;;;20.63;11.65;;;0.60;99.90;;;-0.11;100.00;99193.06;4960571;28;20083;-70
2023/01/25 09:34:01;;;;;;;23.25;12.90;;;0.80;99.90;;;-0.15;100.00;99185.28;4944834;28;20055;-71
2023/01/25 09:36:28;;;;;;;26.80;13.90;;;0.70;99.90;;;-0.17;100.00;99185.25;4957026;28;20058;-70
2023/01/25 09:38:56;;;;;;;27.02;14.45;;;0.70;99.90;;;-0.19;100.00;99186.03;4957849;28;20161;-70
2023/01/25 09:42:43;;;;;;;16.50;9.65;;;0.70;99.90;;;0.07;100.00;99187.56;4958171;28;20047;-70
2023/01/25 09:45:25;;;;;;;24.13;12.75;;;1.00;99.90;;;0.06;100.00;99192.63;4919972;29;20062;-71
2023/01/25 09:48:28;;;;;;;24.77;12.07;;;1.00;99.90;;;0.05;100.00;99190.91;4971149;28;20075;-70
2023/01/25 09:51:48;;;;;;;37.30;15.55;;;1.00;99.90;;;-0.02;100.00;99184.78;4951050;28;20044;-71
2023/01/25 09:54:18;;;;;;;71.82;16.35;;;0.90;99.90;;;-0.16;100.00;99184.44;4963195;28;20071;-70
2023/01/25 09:56:49;;;;;;;38.80;16.23;;;0.80;99.90;;;-0.28;100.00;99191.75;4976115;28;20054;-70
2023/01/25 09:59:25;;;;;;;32.03;15.98;;;0.70;99.90;;;-0.38;100.00;99194.91;4977752;28;20047;-70
2023/01/25 10:02:02;;;;;;;24.75;13.55;;;0.60;99.90;;;-0.23;100.00;99192.72;4963104;28;20062;-70
2023/01/25 10:04:36;;;;;;;34.05;16.40;;;0.60;99.90;;;-0.23;100.00;99193.63;4949107;28;20607;-70
2023/01/25 10:07:45;;;;;;;32.92;15.95;;;0.60;99.90;;;-0.31;100.00;99189.13;4948786;28;20150;-70
2023/01/25 10:10:41;;;;;;;19.63;11.85;;;0.60;99.90;;;-0.06;100.00;99183.84;4915148;29;20582;-70
2023/01/25 10:13:18;;;;;;;31.77;15.05;;;0.80;99.90;;;-0.14;100.00;99185.31;4958451;28;20146;-70
2023/01/25 10:16:21;;;;;;;31.45;15.52;;;0.80;99.90;;;-0.15;100.00;99177.63;4977976;28;20063;-70
2023/01/25 10:19:02;;;;;;;47.75;16.05;;;0.80;99.90;;;-0.26;100.00;99185.00;4937348;28;20050;-70